createdAt,value
2022-11-15T00:02:38.428Z,7.18
2022-11-15T00:05:23.193Z,7.32
2022-11-15T00:08:08.060Z,8.35
2022-11-15T00:10:57.872Z,8.68
2022-11-15T00:13:42.707Z,10.02
2022-11-15T00:16:27.468Z,8.57
2022-11-15T00:19:12.347Z,8.35
2022-11-15T00:21:57.159Z,6.00
2022-11-15T00:24:42.094Z,7.32
2022-11-15T00:27:27.343Z,6.30
2022-11-15T00:30:13.026Z,5.35
2022-11-15T00:32:57.773Z,12.65
2022-11-15T00:35:42.750Z,6.40
2022-11-15T00:38:32.287Z,6.72
2022-11-15T00:41:17.430Z,6.57
2022-11-15T00:44:02.235Z,9.57
2022-11-15T00:46:47.096Z,10.15
2022-11-15T00:49:32.019Z,7.00
2022-11-15T00:52:17.024Z,12.55
2022-11-15T00:55:01.885Z,9.18
2022-11-15T00:57:47.237Z,10.70
2022-11-15T01:00:32.133Z,7.60
2022-11-15T01:03:17.542Z,7.22
2022-11-15T01:06:02.896Z,7.07
2022-11-15T01:08:47.845Z,6.40
2022-11-15T01:11:32.608Z,7.07
2022-11-15T01:14:20.301Z,6.72
2022-11-15T01:17:09.630Z,9.30
2022-11-15T01:19:54.570Z,11.00
2022-11-15T01:22:39.362Z,8.45
2022-11-15T01:25:24.292Z,9.30
2022-11-15T01:28:08.978Z,20.58
2022-11-15T01:30:53.975Z,7.00
2022-11-15T01:33:38.855Z,9.23
2022-11-15T01:36:23.811Z,7.55
2022-11-15T01:39:08.957Z,9.55
2022-11-15T01:41:53.795Z,7.97
2022-11-15T01:44:48.901Z,5.50
2022-11-15T01:47:38.394Z,6.32
2022-11-15T01:50:28.599Z,9.70
2022-11-15T01:53:13.740Z,12.32
2022-11-15T01:55:59.388Z,9.57
2022-11-15T01:58:45.875Z,10.82
2022-11-15T02:01:33.342Z,8.85
2022-11-15T02:04:25.529Z,7.78
2022-11-15T02:07:13.180Z,7.90
2022-11-15T02:10:09.121Z,14.52
2022-11-15T02:12:55.295Z,9.27
2022-11-15T02:16:03.603Z,5.25
2022-11-15T02:19:21.274Z,11.50
2022-11-15T02:22:16.011Z,11.38
2022-11-15T02:25:12.550Z,7.00
2022-11-15T02:28:35.419Z,8.70
2022-11-15T02:31:32.780Z,8.10
2022-11-15T02:34:34.629Z,7.15
2022-11-15T02:40:55.295Z,8.40
2022-11-15T02:44:00.585Z,8.73
2022-11-15T02:47:05.770Z,10.90
2022-11-15T02:49:54.597Z,10.27
2022-11-15T02:52:39.925Z,7.50
2022-11-15T02:55:33.894Z,8.88
2022-11-15T02:58:49.195Z,14.63
2022-11-15T03:01:45.778Z,12.27
2022-11-15T03:04:45.622Z,9.40
2022-11-15T03:07:36.293Z,14.73
2022-11-15T03:10:41.992Z,12.13
2022-11-15T03:13:34.593Z,9.52
2022-11-15T03:16:35.146Z,19.40
2022-11-15T03:19:28.041Z,13.77
2022-11-15T03:22:18.430Z,7.97
2022-11-15T03:25:09.394Z,9.20
2022-11-15T03:27:58.168Z,11.30
2022-11-15T03:30:47.270Z,9.93
2022-11-15T03:33:33.019Z,11.57
2022-11-15T03:36:18.944Z,6.38
2022-11-15T03:39:08.353Z,10.65
2022-11-15T03:42:02.344Z,14.02
2022-11-15T03:45:23.246Z,8.98
2022-11-15T03:48:19.429Z,13.10
2022-11-15T03:51:05.464Z,8.60
2022-11-15T03:53:51.254Z,10.63
2022-11-15T03:56:36.465Z,12.25
2022-11-15T03:59:21.354Z,12.10
2022-11-15T04:02:06.284Z,10.73
2022-11-15T04:04:51.299Z,9.13
2022-11-15T04:07:36.289Z,8.45
2022-11-15T04:10:21.652Z,8.32
2022-11-15T04:13:06.450Z,12.40
2022-11-15T04:15:52.382Z,10.18
2022-11-15T04:18:37.293Z,10.82
2022-11-15T04:21:22.306Z,12.57
2022-11-15T04:24:07.206Z,12.30
2022-11-15T04:26:52.278Z,15.15
2022-11-15T04:29:37.085Z,11.25
2022-11-15T04:32:22.108Z,11.88
2022-11-15T04:35:07.470Z,10.45
2022-11-15T04:37:52.599Z,13.98
2022-11-15T04:40:38.414Z,15.45
2022-11-15T04:43:23.559Z,10.48
2022-11-15T04:46:08.620Z,6.45
2022-11-15T04:48:58.269Z,11.35
2022-11-15T04:51:44.380Z,14.27
2022-11-15T04:54:29.293Z,10.18
2022-11-15T04:57:14.952Z,12.82
2022-11-15T04:59:59.711Z,7.47
2022-11-15T05:02:44.578Z,11.27
2022-11-15T05:05:29.720Z,9.82
2022-11-15T05:08:14.709Z,10.27
2022-11-15T05:10:59.585Z,13.25
2022-11-15T05:13:44.475Z,14.25
2022-11-15T05:16:29.123Z,12.10
2022-11-15T05:19:14.253Z,12.68
2022-11-15T05:21:59.335Z,10.88
2022-11-15T05:24:44.248Z,14.02
2022-11-15T05:27:29.129Z,9.55
2022-11-15T05:30:14.478Z,7.60
2022-11-15T05:33:00.155Z,11.75
2022-11-15T05:35:51.628Z,16.40
2022-11-15T05:38:36.472Z,6.90
2022-11-15T05:41:26.848Z,10.18
2022-11-15T05:44:15.869Z,15.38
2022-11-15T05:47:01.074Z,14.63
2022-11-15T05:49:47.882Z,18.60
2022-11-15T05:52:36.161Z,12.57
2022-11-15T05:55:21.573Z,19.30
2022-11-15T05:58:06.877Z,13.50
2022-11-15T06:00:52.139Z,13.52
2022-11-15T06:03:36.961Z,12.90
2022-11-15T06:06:21.774Z,11.75
2022-11-15T06:09:06.727Z,11.63
2022-11-15T06:11:51.644Z,14.10
2022-11-15T06:14:36.519Z,12.98
2022-11-15T06:17:21.449Z,14.07
2022-11-15T06:20:06.760Z,12.52
2022-11-15T06:22:51.630Z,11.13
2022-11-15T06:25:36.655Z,15.63
2022-11-15T06:28:21.704Z,12.43
2022-11-15T06:31:09.243Z,15.70
2022-11-15T06:33:54.188Z,19.48
2022-11-15T06:36:39.052Z,14.68
2022-11-15T06:39:24.157Z,12.93
2022-11-15T06:42:09.785Z,8.05
2022-11-15T06:44:55.155Z,19.58
2022-11-15T06:47:48.993Z,15.82
2022-11-15T06:50:33.881Z,16.35
2022-11-15T06:53:18.853Z,15.73
2022-11-15T06:56:06.622Z,18.10
2022-11-15T06:58:51.436Z,15.43
2022-11-15T07:01:36.404Z,14.38
2022-11-15T07:04:21.644Z,18.55
2022-11-15T07:07:06.626Z,12.05
2022-11-15T07:09:51.680Z,17.40
2022-11-15T07:12:36.620Z,16.20
2022-11-15T07:15:25.894Z,13.43
2022-11-15T07:18:10.724Z,15.50
2022-11-15T07:20:55.604Z,13.95
2022-11-15T07:23:41.056Z,18.02
2022-11-15T07:26:25.836Z,21.98
2022-11-15T07:29:10.718Z,15.80
2022-11-15T07:31:55.728Z,14.98
2022-11-15T07:34:40.636Z,14.93
2022-11-15T07:37:25.441Z,21.50
2022-11-15T07:40:10.563Z,13.43
2022-11-15T07:43:03.517Z,14.07
2022-11-15T07:45:48.569Z,20.13
2022-11-15T07:48:43.499Z,14.07
2022-11-15T07:51:29.851Z,15.10
2022-11-15T07:54:14.656Z,13.30
2022-11-15T07:57:04.038Z,12.30
2022-11-15T07:59:52.194Z,18.02
2022-11-15T08:02:37.011Z,13.13
2022-11-15T08:05:22.383Z,18.95
2022-11-15T08:08:09.279Z,16.75
2022-11-15T08:10:54.096Z,10.77
2022-11-15T08:13:39.052Z,14.60
2022-11-15T08:16:23.856Z,20.52
2022-11-15T08:19:08.799Z,11.75
2022-11-15T08:21:53.533Z,15.20
2022-11-15T08:24:38.438Z,19.08
2022-11-15T08:27:23.176Z,18.52
2022-11-15T08:30:08.408Z,16.67
2022-11-15T08:32:54.709Z,16.00
2022-11-15T08:35:44.265Z,15.10
2022-11-15T08:38:29.577Z,20.42
2022-11-15T08:41:25.638Z,18.63
2022-11-15T08:44:10.569Z,18.83
2022-11-15T08:46:55.430Z,15.85
2022-11-15T08:49:40.319Z,14.82
2022-11-15T08:52:25.163Z,18.63
2022-11-15T08:55:09.967Z,14.73
2022-11-15T08:57:57.700Z,15.63
2022-11-15T09:00:42.502Z,15.50
2022-11-15T09:03:28.376Z,15.25
2022-11-15T09:06:13.896Z,22.50
2022-11-15T09:08:59.175Z,14.77
2022-11-15T09:11:44.465Z,10.63
2022-11-15T09:14:29.534Z,19.58
2022-11-15T09:17:14.782Z,19.17
2022-11-15T09:19:59.610Z,19.70
2022-11-15T09:22:44.365Z,24.25
2022-11-15T09:25:29.874Z,17.98
2022-11-15T09:28:14.927Z,16.63
2022-11-15T09:31:02.353Z,24.00
2022-11-15T09:33:47.203Z,21.50
2022-11-15T09:36:32.300Z,26.83
2022-11-15T09:39:17.171Z,16.80
2022-11-15T09:42:39.269Z,20.48
2022-11-15T09:45:37.267Z,17.77
2022-11-15T09:48:56.184Z,15.80
2022-11-15T09:51:52.287Z,16.73
2022-11-15T09:54:57.656Z,19.33
2022-11-15T09:57:55.230Z,18.55
2022-11-15T10:00:52.724Z,18.83
2022-11-15T10:03:28.134Z,11.65
2022-11-15T10:05:58.490Z,14.23
2022-11-15T10:09:03.172Z,15.68
2022-11-15T10:11:39.723Z,16.17
2022-11-15T10:14:28.101Z,13.63
2022-11-15T10:17:09.843Z,13.30
2022-11-15T10:19:43.586Z,8.57
2022-11-15T10:22:22.074Z,12.52
2022-11-15T10:24:48.844Z,11.55
2022-11-15T10:27:18.081Z,11.43
2022-11-15T10:29:49.687Z,11.30
2022-11-15T10:34:45.026Z,10.98
2022-11-15T10:37:11.600Z,7.82
2022-11-15T10:39:38.072Z,9.65
2022-11-15T10:42:27.939Z,8.57
2022-11-15T10:44:54.914Z,9.07
2022-11-15T10:47:25.793Z,6.32
2022-11-15T10:50:01.429Z,13.73
2022-11-15T10:52:29.335Z,7.85
2022-11-15T10:55:04.304Z,9.50
2022-11-15T10:57:36.643Z,7.22
2022-11-15T11:00:21.455Z,10.15
2022-11-15T11:02:57.302Z,13.50
2022-11-15T11:05:37.874Z,4.97
2022-11-15T11:08:15.359Z,7.75
2022-11-15T11:11:02.154Z,8.00
2022-11-15T11:13:47.503Z,15.15
2022-11-15T11:16:36.236Z,5.55
2022-11-15T11:19:40.239Z,4.97
2022-11-15T11:22:23.346Z,8.27
2022-11-15T11:25:02.021Z,5.35
2022-11-15T11:27:43.157Z,5.85
2022-11-15T11:30:15.931Z,5.35
2022-11-15T11:33:03.743Z,5.07
2022-11-15T11:36:14.502Z,3.92
2022-11-15T11:38:54.960Z,4.32
2022-11-15T11:41:47.633Z,3.95
2022-11-15T11:44:36.059Z,3.72
2022-11-15T11:47:07.309Z,2.90
2022-11-15T11:49:45.933Z,2.75
2022-11-15T11:52:41.597Z,2.80
2022-11-15T11:55:21.226Z,1.67
2022-11-15T11:57:50.845Z,4.65
2022-11-15T12:00:21.846Z,3.83
2022-11-15T12:03:26.805Z,3.30
2022-11-15T12:06:01.909Z,4.53
2022-11-15T12:08:50.145Z,4.68
2022-11-15T12:11:48.379Z,3.72
2022-11-15T12:14:28.262Z,5.25
2022-11-15T12:16:54.911Z,5.07
2022-11-15T12:19:21.300Z,4.18
2022-11-15T12:21:55.118Z,3.13
2022-11-15T12:24:27.503Z,4.03
2022-11-15T12:27:01.091Z,5.05
2022-11-15T12:29:42.464Z,2.53
2022-11-15T12:32:30.647Z,4.95
2022-11-15T12:34:58.907Z,3.47
2022-11-15T12:37:37.324Z,1.95
2022-11-15T12:40:09.759Z,4.35
2022-11-15T12:42:57.713Z,3.33
2022-11-15T12:45:32.609Z,2.75
2022-11-15T12:48:17.151Z,2.72
2022-11-15T12:50:52.449Z,3.00
2022-11-15T12:53:24.940Z,3.17
2022-11-15T12:56:12.649Z,3.33
2022-11-15T12:58:53.491Z,2.00
2022-11-15T13:01:32.132Z,1.58
2022-11-15T13:04:20.280Z,1.92
2022-11-15T13:06:48.229Z,1.45
2022-11-15T13:09:32.758Z,3.30
2022-11-15T13:12:04.427Z,4.20
2022-11-15T13:14:49.459Z,6.28
2022-11-15T13:17:29.938Z,2.35
2022-11-15T13:20:00.797Z,4.03
2022-11-15T13:22:48.328Z,3.58
2022-11-15T13:25:36.748Z,2.85
2022-11-15T13:28:11.783Z,2.97
2022-11-15T13:30:38.795Z,3.47
2022-11-15T13:33:14.278Z,4.93
2022-11-15T13:35:42.461Z,3.90
2022-11-15T13:38:25.829Z,2.65
2022-11-15T13:40:52.467Z,3.60
2022-11-15T13:43:21.916Z,2.63
2022-11-15T13:46:10.289Z,2.47
2022-11-15T13:48:36.836Z,5.65
2022-11-15T13:51:10.027Z,4.00
2022-11-15T13:53:40.024Z,3.63
2022-11-15T13:56:07.070Z,4.18
2022-11-15T13:58:33.879Z,2.45
2022-11-15T14:01:05.713Z,3.00
2022-11-15T14:03:35.945Z,4.68
2022-11-15T14:06:11.388Z,6.90
2022-11-15T14:08:38.273Z,2.40
2022-11-15T14:11:16.657Z,4.53
2022-11-15T14:14:08.661Z,2.78
2022-11-15T14:16:38.385Z,5.05
2022-11-15T14:19:07.051Z,5.13
2022-11-15T14:21:33.845Z,2.78
2022-11-15T14:24:21.874Z,3.78
2022-11-15T14:26:48.656Z,4.75
2022-11-15T14:29:24.999Z,3.10
2022-11-15T14:31:51.463Z,4.85
2022-11-15T14:34:17.945Z,3.70
2022-11-15T14:36:44.991Z,4.95
2022-11-15T14:39:11.421Z,3.40
2022-11-15T14:41:38.230Z,4.47
2022-11-15T14:44:05.761Z,6.82
2022-11-15T14:46:32.550Z,5.90
2022-11-15T14:49:00.314Z,4.28
2022-11-15T14:51:26.845Z,5.07
2022-11-15T14:53:53.283Z,4.38
2022-11-15T14:56:19.719Z,7.78
2022-11-15T14:58:46.176Z,7.85
2022-11-15T15:01:22.139Z,6.50
2022-11-15T15:03:48.608Z,5.68
2022-11-15T15:06:18.035Z,5.28
2022-11-15T15:08:46.149Z,5.20
2022-11-15T15:11:21.534Z,4.38
2022-11-15T15:13:48.128Z,5.07
2022-11-15T15:16:14.578Z,5.00
2022-11-15T15:18:41.051Z,4.57
2022-11-15T15:21:21.055Z,7.15
2022-11-15T15:23:47.710Z,6.38
2022-11-15T15:26:14.220Z,4.28
2022-11-15T15:28:41.522Z,6.63
2022-11-15T15:31:09.548Z,10.35
2022-11-15T15:33:36.136Z,7.43
2022-11-15T15:36:03.046Z,7.22
2022-11-15T15:38:29.877Z,8.18
2022-11-15T15:40:56.556Z,6.82
2022-11-15T15:43:22.995Z,3.95
2022-11-15T15:45:49.602Z,8.50
2022-11-15T15:48:17.827Z,8.57
2022-11-15T15:50:44.427Z,8.00
2022-11-15T15:53:12.501Z,4.90
2022-11-15T15:55:39.675Z,3.92
2022-11-15T15:58:06.164Z,6.10
2022-11-15T16:00:32.630Z,7.05
2022-11-15T16:02:59.335Z,7.10
2022-11-15T16:05:25.958Z,4.55
2022-11-15T16:07:52.670Z,3.80
2022-11-15T16:10:27.791Z,4.55
2022-11-15T16:12:56.053Z,5.40
2022-11-15T16:15:23.995Z,5.93
2022-11-15T16:17:54.915Z,4.28
2022-11-15T16:20:35.385Z,7.82
2022-11-15T16:23:08.798Z,6.57
2022-11-15T16:25:56.038Z,4.50
2022-11-15T16:28:25.201Z,6.68
2022-11-15T16:31:08.597Z,4.38
2022-11-15T16:33:35.635Z,5.97
2022-11-15T16:36:03.142Z,4.07
2022-11-15T16:38:29.776Z,4.93
2022-11-15T16:40:56.458Z,3.30
2022-11-15T16:43:23.139Z,4.63
2022-11-15T16:45:50.707Z,3.38
2022-11-15T16:48:23.957Z,3.70
2022-11-15T16:50:50.491Z,5.97
2022-11-15T16:53:16.946Z,3.60
2022-11-15T16:55:43.470Z,3.85
2022-11-15T16:58:10.055Z,10.57
2022-11-15T17:00:36.508Z,6.72
2022-11-15T17:03:03.042Z,6.93
2022-11-15T17:05:29.797Z,5.68
2022-11-15T17:07:56.266Z,4.00
2022-11-15T17:10:24.632Z,5.85
2022-11-15T17:12:51.842Z,5.30
2022-11-15T17:15:19.026Z,6.43
2022-11-15T17:17:51.442Z,10.50
2022-11-15T17:20:19.862Z,5.82
2022-11-15T17:22:46.305Z,4.70
2022-11-15T17:25:13.727Z,5.57
2022-11-15T17:27:40.243Z,6.60
2022-11-15T17:30:07.435Z,4.90
2022-11-15T17:32:36.402Z,4.18
2022-11-15T17:35:03.662Z,7.03
2022-11-15T17:37:30.112Z,6.45
2022-11-15T17:39:56.603Z,12.52
2022-11-15T17:42:23.081Z,6.68
2022-11-15T17:44:49.591Z,7.00
2022-11-15T17:47:16.042Z,5.47
2022-11-15T17:49:42.507Z,6.60
2022-11-15T17:52:08.891Z,7.07
2022-11-15T17:54:35.374Z,6.53
2022-11-15T17:57:01.827Z,8.88
2022-11-15T17:59:28.351Z,8.20
2022-11-15T18:01:55.058Z,7.93
2022-11-15T18:04:21.612Z,9.05
2022-11-15T18:06:48.248Z,9.82
2022-11-15T18:09:14.662Z,7.63
2022-11-15T18:11:42.212Z,7.35
2022-11-15T18:14:13.451Z,10.57
2022-11-15T18:16:40.539Z,12.32
2022-11-15T18:19:07.531Z,10.60
2022-11-15T18:21:34.809Z,8.02
2022-11-15T18:24:02.205Z,9.98
2022-11-15T18:26:30.283Z,11.63
2022-11-15T18:29:02.304Z,11.73
2022-11-15T18:31:30.327Z,10.45
2022-11-15T18:33:59.286Z,11.05
2022-11-15T18:36:28.094Z,9.75
2022-11-15T18:39:00.048Z,10.93
2022-11-15T18:41:26.578Z,13.15
2022-11-15T18:43:52.989Z,11.27
2022-11-15T18:46:21.327Z,13.25
2022-11-15T18:48:49.168Z,10.43
2022-11-15T18:51:18.249Z,9.98
2022-11-15T18:53:45.433Z,9.82
2022-11-15T18:56:14.851Z,14.75
2022-11-15T18:58:46.695Z,14.50
2022-11-15T19:01:18.204Z,13.32
2022-11-15T19:06:14.964Z,9.32
2022-11-15T19:08:43.013Z,13.00
2022-11-15T19:11:21.854Z,10.77
2022-11-15T19:13:48.270Z,12.05
2022-11-15T19:16:15.995Z,18.02
2022-11-15T19:18:42.809Z,13.95
2022-11-15T19:21:15.856Z,13.13
2022-11-15T19:23:43.054Z,9.45
2022-11-15T19:26:11.915Z,9.90
2022-11-15T19:28:38.936Z,10.20
2022-11-15T19:31:16.351Z,8.00
2022-11-15T19:33:44.171Z,9.43
2022-11-15T19:36:17.879Z,11.75
2022-11-15T19:38:44.799Z,15.75
2022-11-15T19:41:16.037Z,11.15
2022-11-15T19:43:42.981Z,9.07
2022-11-15T19:46:11.742Z,8.93
2022-11-15T19:48:38.634Z,15.32
2022-11-15T19:51:16.790Z,11.30
2022-11-15T19:53:43.543Z,8.15
2022-11-15T19:56:12.417Z,11.98
2022-11-15T19:58:39.345Z,10.25
2022-11-15T20:01:27.903Z,11.43
2022-11-15T20:03:56.187Z,12.10
2022-11-15T20:06:25.723Z,9.80
2022-11-15T20:08:52.247Z,11.68
2022-11-15T20:11:19.391Z,11.70
2022-11-15T20:13:46.713Z,11.27
2022-11-15T20:16:23.159Z,18.27
2022-11-15T20:18:50.596Z,15.07
2022-11-15T20:21:17.439Z,14.68
2022-11-15T20:23:44.524Z,13.60
2022-11-15T20:26:11.797Z,15.43
2022-11-15T20:28:39.776Z,11.07
2022-11-15T20:31:07.469Z,10.43
2022-11-15T20:33:34.397Z,9.98
2022-11-15T20:36:10.670Z,15.70
2022-11-15T20:38:37.530Z,9.10
2022-11-15T20:41:04.368Z,12.48
2022-11-15T20:43:30.880Z,10.30
2022-11-15T20:45:57.322Z,12.45
2022-11-15T20:48:23.777Z,17.38
2022-11-15T20:50:50.253Z,16.25
2022-11-15T20:53:19.135Z,9.18
2022-11-15T20:55:48.960Z,11.15
2022-11-15T20:58:17.049Z,13.27
2022-11-15T21:00:44.430Z,11.15
2022-11-15T21:03:11.737Z,12.32
2022-11-15T21:05:39.404Z,11.60
2022-11-15T21:08:06.747Z,10.65
2022-11-15T21:10:33.391Z,11.07
2022-11-15T21:12:59.865Z,8.80
2022-11-15T21:15:26.260Z,11.15
2022-11-15T21:17:52.776Z,15.07
2022-11-15T21:20:19.209Z,11.25
2022-11-15T21:22:45.675Z,12.70
2022-11-15T21:25:12.134Z,13.70
2022-11-15T21:27:38.608Z,12.60
2022-11-15T21:30:05.666Z,7.53
2022-11-15T21:32:32.230Z,9.45
2022-11-15T21:34:58.714Z,8.88
2022-11-15T21:37:25.297Z,12.00
2022-11-15T21:39:51.726Z,13.80
2022-11-15T21:42:18.179Z,15.77
2022-11-15T21:44:44.665Z,11.27
2022-11-15T21:47:11.369Z,10.95
2022-11-15T21:49:37.881Z,9.15
2022-11-15T21:52:04.477Z,10.57
2022-11-15T21:54:30.949Z,10.85
2022-11-15T21:56:57.809Z,16.92
2022-11-15T21:59:24.379Z,10.43
2022-11-15T22:01:50.817Z,7.45
2022-11-15T22:04:17.374Z,10.75
2022-11-15T22:06:43.789Z,12.18
2022-11-15T22:09:10.686Z,10.27
2022-11-15T22:11:37.126Z,7.93
2022-11-15T22:14:03.884Z,13.50
2022-11-15T22:16:30.828Z,6.78
2022-11-15T22:18:57.497Z,11.68
2022-11-15T22:21:23.927Z,9.45
2022-11-15T22:23:50.432Z,11.45
2022-11-15T22:26:23.267Z,10.45
2022-11-15T22:28:50.566Z,15.30
2022-11-15T22:31:17.039Z,8.15
2022-11-15T22:33:43.527Z,6.95
2022-11-15T22:36:12.418Z,15.55
2022-11-15T22:38:38.993Z,9.82
2022-11-15T22:41:05.668Z,8.90
2022-11-15T22:43:32.167Z,8.55
2022-11-15T22:45:59.962Z,10.32
2022-11-15T22:48:29.601Z,9.68
2022-11-15T22:50:56.851Z,15.10
2022-11-15T22:53:24.321Z,11.32
2022-11-15T22:55:59.130Z,11.05
2022-11-15T22:58:28.111Z,24.98
2022-11-15T23:00:56.886Z,9.10
2022-11-15T23:03:24.297Z,10.18
2022-11-15T23:05:51.063Z,9.02
2022-11-15T23:08:18.373Z,10.05
2022-11-15T23:10:45.253Z,9.73
2022-11-15T23:13:13.572Z,18.42
2022-11-15T23:15:40.001Z,11.73
2022-11-15T23:18:06.498Z,11.65
2022-11-15T23:20:42.843Z,11.80
2022-11-15T23:23:10.588Z,17.25
2022-11-15T23:25:37.088Z,13.63
2022-11-15T23:28:04.670Z,11.40
2022-11-15T23:30:37.918Z,7.80
2022-11-15T23:33:04.371Z,16.23
2022-11-15T23:35:30.787Z,15.50
2022-11-15T23:37:57.240Z,14.38
2022-11-15T23:40:23.699Z,11.30
2022-11-15T23:42:50.345Z,19.95
2022-11-15T23:45:17.012Z,21.23
2022-11-15T23:47:44.089Z,15.15
2022-11-15T23:50:10.795Z,17.70
2022-11-15T23:52:37.516Z,13.00
2022-11-15T23:55:04.177Z,16.15
2022-11-15T23:57:30.607Z,18.70
